sensor_id;sensor_type;location;lat;lon;timestamp;P1;durP1;ratioP1;P2;durP2;ratioP2
50161;SDS011;36061;48.116;11.612;2024-01-30T00:00:53;7.10;;;4.43;;
50161;SDS011;36061;48.116;11.612;2024-01-30T00:03:20;8.33;;;5.10;;
50161;SDS011;36061;48.116;11.612;2024-01-30T00:05:49;12.37;;;5.33;;
50161;SDS011;36061;48.116;11.612;2024-01-30T00:08:17;9.47;;;5.07;;
50161;SDS011;36061;48.116;11.612;2024-01-30T00:10:44;6.10;;;4.13;;
50161;SDS011;36061;48.116;11.612;2024-01-30T00:13:12;9.70;;;4.40;;
50161;SDS011;36061;48.116;11.612;2024-01-30T00:15:41;7.40;;;4.73;;
50161;SDS011;36061;48.116;11.612;2024-01-30T00:18:09;9.13;;;4.80;;
50161;SDS011;36061;48.116;11.612;2024-01-30T00:20:36;8.80;;;4.93;;
50161;SDS011;36061;48.116;11.612;2024-01-30T00:23:05;7.67;;;4.60;;
50161;SDS011;36061;48.116;11.612;2024-01-30T00:25:32;9.20;;;4.07;;
50161;SDS011;36061;48.116;11.612;2024-01-30T00:28:00;7.40;;;5.10;;
50161;SDS011;36061;48.116;11.612;2024-01-30T00:30:27;5.97;;;3.83;;
50161;SDS011;36061;48.116;11.612;2024-01-30T00:32:55;6.17;;;3.90;;
50161;SDS011;36061;48.116;11.612;2024-01-30T00:35:22;7.97;;;4.10;;
50161;SDS011;36061;48.116;11.612;2024-01-30T00:37:49;8.13;;;4.07;;
50161;SDS011;36061;48.116;11.612;2024-01-30T00:40:18;6.77;;;4.30;;
50161;SDS011;36061;48.116;11.612;2024-01-30T00:42:45;6.70;;;4.03;;
50161;SDS011;36061;48.116;11.612;2024-01-30T00:45:13;5.73;;;3.87;;
50161;SDS011;36061;48.116;11.612;2024-01-30T00:47:41;5.10;;;3.33;;
50161;SDS011;36061;48.116;11.612;2024-01-30T00:50:09;6.20;;;3.90;;
50161;SDS011;36061;48.116;11.612;2024-01-30T00:52:36;3.97;;;3.03;;
50161;SDS011;36061;48.116;11.612;2024-01-30T00:55:04;5.30;;;3.73;;
50161;SDS011;36061;48.116;11.612;2024-01-30T00:57:34;5.40;;;3.30;;
50161;SDS011;36061;48.116;11.612;2024-01-30T01:00:01;6.00;;;3.80;;
50161;SDS011;36061;48.116;11.612;2024-01-30T01:02:31;4.80;;;3.47;;
50161;SDS011;36061;48.116;11.612;2024-01-30T01:04:59;7.07;;;3.93;;
50161;SDS011;36061;48.116;11.612;2024-01-30T01:07:26;4.63;;;3.30;;
50161;SDS011;36061;48.116;11.612;2024-01-30T01:09:54;4.80;;;3.23;;
50161;SDS011;36061;48.116;11.612;2024-01-30T01:12:21;6.27;;;3.83;;
50161;SDS011;36061;48.116;11.612;2024-01-30T01:14:50;6.60;;;3.73;;
50161;SDS011;36061;48.116;11.612;2024-01-30T01:17:18;5.80;;;3.83;;
50161;SDS011;36061;48.116;11.612;2024-01-30T01:19:45;6.40;;;3.77;;
50161;SDS011;36061;48.116;11.612;2024-01-30T01:22:12;6.13;;;3.70;;
50161;SDS011;36061;48.116;11.612;2024-01-30T01:24:40;4.57;;;3.20;;
50161;SDS011;36061;48.116;11.612;2024-01-30T01:27:07;4.97;;;3.40;;
50161;SDS011;36061;48.116;11.612;2024-01-30T01:29:34;4.67;;;3.77;;
50161;SDS011;36061;48.116;11.612;2024-01-30T01:32:03;5.33;;;3.80;;
50161;SDS011;36061;48.116;11.612;2024-01-30T01:34:31;5.77;;;3.60;;
50161;SDS011;36061;48.116;11.612;2024-01-30T01:36:59;6.13;;;3.80;;
50161;SDS011;36061;48.116;11.612;2024-01-30T01:39:26;6.50;;;3.87;;
50161;SDS011;36061;48.116;11.612;2024-01-30T01:41:53;6.70;;;4.00;;
50161;SDS011;36061;48.116;11.612;2024-01-30T01:44:21;6.33;;;3.90;;
50161;SDS011;36061;48.116;11.612;2024-01-30T01:46:48;6.83;;;3.83;;
50161;SDS011;36061;48.116;11.612;2024-01-30T01:49:17;6.07;;;3.17;;
50161;SDS011;36061;48.116;11.612;2024-01-30T01:51:45;5.07;;;4.07;;
50161;SDS011;36061;48.116;11.612;2024-01-30T01:54:14;7.33;;;3.47;;
50161;SDS011;36061;48.116;11.612;2024-01-30T01:56:43;5.73;;;3.53;;
50161;SDS011;36061;48.116;11.612;2024-01-30T01:59:10;8.73;;;3.60;;
50161;SDS011;36061;48.116;11.612;2024-01-30T02:01:38;4.77;;;3.57;;
50161;SDS011;36061;48.116;11.612;2024-01-30T02:04:06;5.03;;;3.47;;
50161;SDS011;36061;48.116;11.612;2024-01-30T02:06:35;5.83;;;3.50;;
50161;SDS011;36061;48.116;11.612;2024-01-30T02:09:03;5.97;;;3.60;;
50161;SDS011;36061;48.116;11.612;2024-01-30T02:11:31;5.37;;;3.33;;
50161;SDS011;36061;48.116;11.612;2024-01-30T02:14:02;5.47;;;3.70;;
50161;SDS011;36061;48.116;11.612;2024-01-30T02:16:30;6.90;;;3.50;;
50161;SDS011;36061;48.116;11.612;2024-01-30T02:18:58;4.73;;;3.87;;
50161;SDS011;36061;48.116;11.612;2024-01-30T02:21:30;6.13;;;3.93;;
50161;SDS011;36061;48.116;11.612;2024-01-30T02:23:58;5.83;;;3.60;;
50161;SDS011;36061;48.116;11.612;2024-01-30T02:26:26;7.53;;;4.43;;
50161;SDS011;36061;48.116;11.612;2024-01-30T02:28:53;8.60;;;4.40;;
50161;SDS011;36061;48.116;11.612;2024-01-30T02:31:21;5.90;;;3.73;;
50161;SDS011;36061;48.116;11.612;2024-01-30T02:33:49;9.47;;;4.93;;
50161;SDS011;36061;48.116;11.612;2024-01-30T02:36:17;10.70;;;5.10;;
50161;SDS011;36061;48.116;11.612;2024-01-30T02:38:45;9.40;;;5.23;;
50161;SDS011;36061;48.116;11.612;2024-01-30T02:41:13;9.67;;;4.63;;
50161;SDS011;36061;48.116;11.612;2024-01-30T02:43:40;7.67;;;4.30;;
50161;SDS011;36061;48.116;11.612;2024-01-30T02:46:07;5.60;;;3.40;;
50161;SDS011;36061;48.116;11.612;2024-01-30T02:48:35;5.50;;;3.53;;
50161;SDS011;36061;48.116;11.612;2024-01-30T02:51:04;5.70;;;3.97;;
50161;SDS011;36061;48.116;11.612;2024-01-30T02:53:32;5.07;;;3.50;;
50161;SDS011;36061;48.116;11.612;2024-01-30T02:56:01;9.17;;;4.30;;
50161;SDS011;36061;48.116;11.612;2024-01-30T02:58:29;8.53;;;5.00;;
50161;SDS011;36061;48.116;11.612;2024-01-30T03:00:56;8.67;;;4.50;;
50161;SDS011;36061;48.116;11.612;2024-01-30T03:03:23;6.07;;;3.67;;
50161;SDS011;36061;48.116;11.612;2024-01-30T03:05:51;8.37;;;4.40;;
50161;SDS011;36061;48.116;11.612;2024-01-30T03:08:18;6.17;;;4.03;;
50161;SDS011;36061;48.116;11.612;2024-01-30T03:10:46;6.90;;;4.00;;
50161;SDS011;36061;48.116;11.612;2024-01-30T03:13:15;8.57;;;4.30;;
50161;SDS011;36061;48.116;11.612;2024-01-30T03:15:42;7.53;;;3.63;;
50161;SDS011;36061;48.116;11.612;2024-01-30T03:18:09;5.13;;;3.63;;
50161;SDS011;36061;48.116;11.612;2024-01-30T03:20:37;6.80;;;3.80;;
50161;SDS011;36061;48.116;11.612;2024-01-30T03:23:04;5.37;;;3.10;;
50161;SDS011;36061;48.116;11.612;2024-01-30T03:25:31;4.87;;;3.03;;
50161;SDS011;36061;48.116;11.612;2024-01-30T03:27:59;5.73;;;3.87;;
50161;SDS011;36061;48.116;11.612;2024-01-30T03:30:28;4.70;;;2.67;;
50161;SDS011;36061;48.116;11.612;2024-01-30T03:32:55;4.27;;;2.97;;
50161;SDS011;36061;48.116;11.612;2024-01-30T03:35:22;5.23;;;3.20;;
50161;SDS011;36061;48.116;11.612;2024-01-30T03:37:50;4.77;;;2.87;;
50161;SDS011;36061;48.116;11.612;2024-01-30T03:40:17;3.17;;;2.53;;
50161;SDS011;36061;48.116;11.612;2024-01-30T03:42:44;3.77;;;2.63;;
50161;SDS011;36061;48.116;11.612;2024-01-30T03:45:12;5.57;;;3.10;;
50161;SDS011;36061;48.116;11.612;2024-01-30T03:47:41;4.47;;;3.10;;
50161;SDS011;36061;48.116;11.612;2024-01-30T03:50:10;3.83;;;2.27;;
50161;SDS011;36061;48.116;11.612;2024-01-30T03:52:37;6.30;;;2.97;;
50161;SDS011;36061;48.116;11.612;2024-01-30T03:55:05;3.40;;;2.40;;
50161;SDS011;36061;48.116;11.612;2024-01-30T03:57:33;4.93;;;3.03;;
50161;SDS011;36061;48.116;11.612;2024-01-30T04:00:00;6.13;;;3.13;;
50161;SDS011;36061;48.116;11.612;2024-01-30T04:02:37;6.00;;;2.67;;
50161;SDS011;36061;48.116;11.612;2024-01-30T04:05:07;4.00;;;2.80;;
50161;SDS011;36061;48.116;11.612;2024-01-30T04:07:35;3.50;;;3.17;;
50161;SDS011;36061;48.116;11.612;2024-01-30T04:10:02;4.73;;;3.37;;
50161;SDS011;36061;48.116;11.612;2024-01-30T04:12:31;3.97;;;2.63;;
50161;SDS011;36061;48.116;11.612;2024-01-30T04:14:58;4.70;;;2.40;;
50161;SDS011;36061;48.116;11.612;2024-01-30T04:17:26;4.17;;;2.37;;
50161;SDS011;36061;48.116;11.612;2024-01-30T04:19:54;2.93;;;2.43;;
50161;SDS011;36061;48.116;11.612;2024-01-30T04:22:23;5.13;;;2.50;;
50161;SDS011;36061;48.116;11.612;2024-01-30T04:24:50;3.50;;;2.47;;
50161;SDS011;36061;48.116;11.612;2024-01-30T04:27:17;4.73;;;2.63;;
50161;SDS011;36061;48.116;11.612;2024-01-30T04:29:45;3.93;;;2.27;;
50161;SDS011;36061;48.116;11.612;2024-01-30T04:32:12;4.07;;;2.60;;
50161;SDS011;36061;48.116;11.612;2024-01-30T04:34:39;4.93;;;2.50;;
50161;SDS011;36061;48.116;11.612;2024-01-30T04:37:07;3.10;;;2.40;;
50161;SDS011;36061;48.116;11.612;2024-01-30T04:39:35;4.07;;;2.90;;
50161;SDS011;36061;48.116;11.612;2024-01-30T04:42:03;3.53;;;2.47;;
50161;SDS011;36061;48.116;11.612;2024-01-30T04:44:31;3.50;;;2.30;;
50161;SDS011;36061;48.116;11.612;2024-01-30T04:46:58;4.73;;;3.13;;
50161;SDS011;36061;48.116;11.612;2024-01-30T04:49:26;3.80;;;2.53;;
50161;SDS011;36061;48.116;11.612;2024-01-30T04:51:54;7.83;;;2.90;;
50161;SDS011;36061;48.116;11.612;2024-01-30T04:54:22;5.33;;;3.23;;
50161;SDS011;36061;48.116;11.612;2024-01-30T04:56:50;3.43;;;2.70;;
50161;SDS011;36061;48.116;11.612;2024-01-30T04:59:18;3.10;;;2.40;;
50161;SDS011;36061;48.116;11.612;2024-01-30T05:01:45;4.43;;;2.43;;
50161;SDS011;36061;48.116;11.612;2024-01-30T05:04:12;5.77;;;2.60;;
50161;SDS011;36061;48.116;11.612;2024-01-30T05:06:40;4.57;;;2.47;;
50161;SDS011;36061;48.116;11.612;2024-01-30T05:09:07;3.13;;;2.30;;
50161;SDS011;36061;48.116;11.612;2024-01-30T05:11:36;4.53;;;2.37;;
50161;SDS011;36061;48.116;11.612;2024-01-30T05:14:05;2.63;;;2.23;;
50161;SDS011;36061;48.116;11.612;2024-01-30T05:16:34;2.33;;;2.10;;
50161;SDS011;36061;48.116;11.612;2024-01-30T05:19:01;3.37;;;2.07;;
50161;SDS011;36061;48.116;11.612;2024-01-30T05:21:29;4.07;;;2.13;;
50161;SDS011;36061;48.116;11.612;2024-01-30T05:23:56;3.57;;;2.13;;
50161;SDS011;36061;48.116;11.612;2024-01-30T05:26:23;2.53;;;2.00;;
50161;SDS011;36061;48.116;11.612;2024-01-30T05:28:51;2.97;;;1.63;;
50161;SDS011;36061;48.116;11.612;2024-01-30T05:31:20;2.50;;;2.10;;
50161;SDS011;36061;48.116;11.612;2024-01-30T05:33:48;3.77;;;2.13;;
50161;SDS011;36061;48.116;11.612;2024-01-30T05:36:15;4.23;;;2.80;;
50161;SDS011;36061;48.116;11.612;2024-01-30T05:38:42;2.30;;;1.90;;
50161;SDS011;36061;48.116;11.612;2024-01-30T05:41:09;4.47;;;2.33;;
50161;SDS011;36061;48.116;11.612;2024-01-30T05:43:37;5.97;;;2.27;;
50161;SDS011;36061;48.116;11.612;2024-01-30T05:46:04;3.47;;;2.30;;
50161;SDS011;36061;48.116;11.612;2024-01-30T05:48:34;4.77;;;1.57;;
50161;SDS011;36061;48.116;11.612;2024-01-30T05:51:01;3.63;;;2.03;;
50161;SDS011;36061;48.116;11.612;2024-01-30T05:53:29;1.87;;;1.67;;
50161;SDS011;36061;48.116;11.612;2024-01-30T05:55:56;2.47;;;1.77;;
50161;SDS011;36061;48.116;11.612;2024-01-30T05:58:24;2.83;;;2.10;;
50161;SDS011;36061;48.116;11.612;2024-01-30T06:00:51;3.43;;;1.90;;
50161;SDS011;36061;48.116;11.612;2024-01-30T06:03:19;2.80;;;2.17;;
50161;SDS011;36061;48.116;11.612;2024-01-30T06:05:48;3.27;;;2.20;;
50161;SDS011;36061;48.116;11.612;2024-01-30T06:08:15;1.90;;;1.67;;
50161;SDS011;36061;48.116;11.612;2024-01-30T06:10:42;2.73;;;2.00;;
50161;SDS011;36061;48.116;11.612;2024-01-30T06:13:10;6.43;;;1.67;;
50161;SDS011;36061;48.116;11.612;2024-01-30T06:15:37;3.87;;;1.90;;
50161;SDS011;36061;48.116;11.612;2024-01-30T06:18:04;2.53;;;1.87;;
50161;SDS011;36061;48.116;11.612;2024-01-30T06:20:32;6.53;;;2.10;;
50161;SDS011;36061;48.116;11.612;2024-01-30T06:23:01;2.30;;;1.73;;
50161;SDS011;36061;48.116;11.612;2024-01-30T06:25:28;4.57;;;2.03;;
50161;SDS011;36061;48.116;11.612;2024-01-30T06:27:55;2.33;;;1.90;;
50161;SDS011;36061;48.116;11.612;2024-01-30T06:30:23;4.93;;;2.30;;
50161;SDS011;36061;48.116;11.612;2024-01-30T06:32:50;2.17;;;1.63;;
50161;SDS011;36061;48.116;11.612;2024-01-30T06:35:17;2.87;;;1.63;;
50161;SDS011;36061;48.116;11.612;2024-01-30T06:37:45;9.03;;;4.40;;
50161;SDS011;36061;48.116;11.612;2024-01-30T06:40:14;3.50;;;2.60;;
50161;SDS011;36061;48.116;11.612;2024-01-30T06:42:41;3.53;;;1.90;;
50161;SDS011;36061;48.116;11.612;2024-01-30T06:45:09;4.87;;;3.53;;
50161;SDS011;36061;48.116;11.612;2024-01-30T06:47:36;4.03;;;2.57;;
50161;SDS011;36061;48.116;11.612;2024-01-30T06:50:04;3.30;;;2.00;;
50161;SDS011;36061;48.116;11.612;2024-01-30T06:52:32;6.17;;;2.03;;
50161;SDS011;36061;48.116;11.612;2024-01-30T06:54:59;3.70;;;2.07;;
50161;SDS011;36061;48.116;11.612;2024-01-30T06:57:28;2.93;;;2.00;;
50161;SDS011;36061;48.116;11.612;2024-01-30T06:59:56;5.47;;;2.80;;
50161;SDS011;36061;48.116;11.612;2024-01-30T07:02:23;4.37;;;2.70;;
50161;SDS011;36061;48.116;11.612;2024-01-30T07:04:50;3.60;;;2.53;;
50161;SDS011;36061;48.116;11.612;2024-01-30T07:07:18;5.17;;;2.40;;
50161;SDS011;36061;48.116;11.612;2024-01-30T07:09:45;6.60;;;2.80;;
50161;SDS011;36061;48.116;11.612;2024-01-30T07:12:15;6.50;;;3.47;;
50161;SDS011;36061;48.116;11.612;2024-01-30T07:14:44;6.23;;;2.90;;
50161;SDS011;36061;48.116;11.612;2024-01-30T07:17:11;4.83;;;2.63;;
50161;SDS011;36061;48.116;11.612;2024-01-30T07:19:38;5.93;;;2.77;;
50161;SDS011;36061;48.116;11.612;2024-01-30T07:22:06;4.53;;;2.60;;
50161;SDS011;36061;48.116;11.612;2024-01-30T07:24:33;3.87;;;2.80;;
50161;SDS011;36061;48.116;11.612;2024-01-30T07:27:00;6.93;;;2.57;;
50161;SDS011;36061;48.116;11.612;2024-01-30T07:29:28;2.23;;;2.03;;
50161;SDS011;36061;48.116;11.612;2024-01-30T07:31:57;4.33;;;2.17;;
50161;SDS011;36061;48.116;11.612;2024-01-30T07:34:24;4.63;;;2.33;;
50161;SDS011;36061;48.116;11.612;2024-01-30T07:36:53;4.30;;;2.33;;
50161;SDS011;36061;48.116;11.612;2024-01-30T07:39:21;4.70;;;2.30;;
50161;SDS011;36061;48.116;11.612;2024-01-30T07:41:48;5.10;;;2.17;;
50161;SDS011;36061;48.116;11.612;2024-01-30T07:44:16;7.40;;;2.33;;
50161;SDS011;36061;48.116;11.612;2024-01-30T07:46:43;3.97;;;2.30;;
50161;SDS011;36061;48.116;11.612;2024-01-30T07:49:12;5.57;;;2.67;;
50161;SDS011;36061;48.116;11.612;2024-01-30T07:51:40;2.33;;;2.00;;
50161;SDS011;36061;48.116;11.612;2024-01-30T07:54:08;3.73;;;2.30;;
50161;SDS011;36061;48.116;11.612;2024-01-30T07:56:35;7.60;;;2.27;;
50161;SDS011;36061;48.116;11.612;2024-01-30T07:59:03;4.60;;;2.07;;
50161;SDS011;36061;48.116;11.612;2024-01-30T08:01:30;6.37;;;2.30;;
50161;SDS011;36061;48.116;11.612;2024-01-30T08:03:58;7.00;;;2.37;;
50161;SDS011;36061;48.116;11.612;2024-01-30T08:06:26;6.07;;;2.63;;
50161;SDS011;36061;48.116;11.612;2024-01-30T08:08:54;6.40;;;2.30;;
50161;SDS011;36061;48.116;11.612;2024-01-30T08:11:22;5.20;;;2.27;;
50161;SDS011;36061;48.116;11.612;2024-01-30T08:13:52;3.13;;;2.00;;
50161;SDS011;36061;48.116;11.612;2024-01-30T08:16:19;4.80;;;2.00;;
50161;SDS011;36061;48.116;11.612;2024-01-30T08:18:47;6.07;;;2.30;;
50161;SDS011;36061;48.116;11.612;2024-01-30T08:21:14;5.07;;;2.00;;
50161;SDS011;36061;48.116;11.612;2024-01-30T08:23:44;4.33;;;1.70;;
50161;SDS011;36061;48.116;11.612;2024-01-30T08:26:11;7.97;;;2.13;;
50161;SDS011;36061;48.116;11.612;2024-01-30T08:28:39;9.00;;;2.57;;
50161;SDS011;36061;48.116;11.612;2024-01-30T08:31:06;5.57;;;2.17;;
50161;SDS011;36061;48.116;11.612;2024-01-30T08:33:33;9.97;;;2.50;;
50161;SDS011;36061;48.116;11.612;2024-01-30T08:36:01;3.23;;;1.80;;
50161;SDS011;36061;48.116;11.612;2024-01-30T08:38:28;4.73;;;1.77;;
50161;SDS011;36061;48.116;11.612;2024-01-30T08:40:57;7.60;;;2.40;;
50161;SDS011;36061;48.116;11.612;2024-01-30T08:43:25;10.20;;;2.70;;
50161;SDS011;36061;48.116;11.612;2024-01-30T08:45:52;12.37;;;2.63;;
50161;SDS011;36061;48.116;11.612;2024-01-30T08:48:19;7.40;;;2.50;;
50161;SDS011;36061;48.116;11.612;2024-01-30T08:50:48;7.37;;;2.23;;
50161;SDS011;36061;48.116;11.612;2024-01-30T08:53:15;6.03;;;2.27;;
50161;SDS011;36061;48.116;11.612;2024-01-30T08:55:42;12.07;;;2.53;;
50161;SDS011;36061;48.116;11.612;2024-01-30T08:58:11;13.37;;;2.70;;
50161;SDS011;36061;48.116;11.612;2024-01-30T09:00:39;4.70;;;2.60;;
50161;SDS011;36061;48.116;11.612;2024-01-30T09:03:06;4.30;;;2.47;;
50161;SDS011;36061;48.116;11.612;2024-01-30T09:05:33;11.40;;;2.80;;
50161;SDS011;36061;48.116;11.612;2024-01-30T09:08:01;9.13;;;2.20;;
50161;SDS011;36061;48.116;11.612;2024-01-30T09:10:28;5.80;;;2.77;;
50161;SDS011;36061;48.116;11.612;2024-01-30T09:12:55;3.47;;;2.27;;
50161;SDS011;36061;48.116;11.612;2024-01-30T09:15:24;4.67;;;2.30;;
50161;SDS011;36061;48.116;11.612;2024-01-30T09:17:52;12.20;;;2.93;;
50161;SDS011;36061;48.116;11.612;2024-01-30T09:20:19;10.47;;;2.90;;
50161;SDS011;36061;48.116;11.612;2024-01-30T09:22:47;11.60;;;2.60;;
50161;SDS011;36061;48.116;11.612;2024-01-30T09:25:15;10.67;;;2.83;;
50161;SDS011;36061;48.116;11.612;2024-01-30T09:27:44;5.87;;;2.73;;
50161;SDS011;36061;48.116;11.612;2024-01-30T09:30:11;3.83;;;2.80;;
50161;SDS011;36061;48.116;11.612;2024-01-30T09:32:40;9.27;;;2.80;;
50161;SDS011;36061;48.116;11.612;2024-01-30T09:35:08;6.93;;;2.83;;
50161;SDS011;36061;48.116;11.612;2024-01-30T09:37:36;9.63;;;2.90;;
50161;SDS011;36061;48.116;11.612;2024-01-30T09:40:03;6.60;;;2.60;;
50161;SDS011;36061;48.116;11.612;2024-01-30T09:42:33;4.13;;;2.37;;
50161;SDS011;36061;48.116;11.612;2024-01-30T09:45:01;3.77;;;2.30;;
50161;SDS011;36061;48.116;11.612;2024-01-30T09:47:31;5.70;;;2.87;;
50161;SDS011;36061;48.116;11.612;2024-01-30T09:50:00;4.70;;;2.67;;
50161;SDS011;36061;48.116;11.612;2024-01-30T09:52:31;6.30;;;2.77;;
50161;SDS011;36061;48.116;11.612;2024-01-30T09:54:59;3.67;;;2.03;;
50161;SDS011;36061;48.116;11.612;2024-01-30T09:57:27;6.20;;;2.20;;
50161;SDS011;36061;48.116;11.612;2024-01-30T09:59:55;9.90;;;2.53;;
50161;SDS011;36061;48.116;11.612;2024-01-30T10:02:22;7.30;;;2.93;;
50161;SDS011;36061;48.116;11.612;2024-01-30T10:04:51;3.50;;;2.40;;
50161;SDS011;36061;48.116;11.612;2024-01-30T10:07:20;7.70;;;2.63;;
50161;SDS011;36061;48.116;11.612;2024-01-30T10:09:47;3.97;;;2.00;;
50161;SDS011;36061;48.116;11.612;2024-01-30T10:12:15;3.73;;;2.53;;
50161;SDS011;36061;48.116;11.612;2024-01-30T10:14:42;6.10;;;2.20;;
50161;SDS011;36061;48.116;11.612;2024-01-30T10:17:10;15.40;;;3.13;;
50161;SDS011;36061;48.116;11.612;2024-01-30T10:19:39;7.83;;;2.17;;
50161;SDS011;36061;48.116;11.612;2024-01-30T10:22:07;3.40;;;2.00;;
50161;SDS011;36061;48.116;11.612;2024-01-30T10:24:37;4.30;;;2.20;;
50161;SDS011;36061;48.116;11.612;2024-01-30T10:27:05;13.33;;;2.20;;
50161;SDS011;36061;48.116;11.612;2024-01-30T10:29:32;3.87;;;2.00;;
50161;SDS011;36061;48.116;11.612;2024-01-30T10:32:00;10.37;;;2.37;;
50161;SDS011;36061;48.116;11.612;2024-01-30T10:34:28;5.83;;;2.47;;
50161;SDS011;36061;48.116;11.612;2024-01-30T10:36:59;1.97;;;1.60;;
50161;SDS011;36061;48.116;11.612;2024-01-30T10:39:34;4.13;;;2.27;;
50161;SDS011;36061;48.116;11.612;2024-01-30T10:42:07;6.70;;;2.10;;
50161;SDS011;36061;48.116;11.612;2024-01-30T10:44:41;5.33;;;1.80;;
50161;SDS011;36061;48.116;11.612;2024-01-30T10:47:29;5.03;;;2.73;;
50161;SDS011;36061;48.116;11.612;2024-01-30T10:49:56;6.37;;;2.63;;
50161;SDS011;36061;48.116;11.612;2024-01-30T10:52:24;3.83;;;2.27;;
50161;SDS011;36061;48.116;11.612;2024-01-30T10:54:55;4.23;;;2.50;;
50161;SDS011;36061;48.116;11.612;2024-01-30T10:57:22;8.50;;;3.23;;
50161;SDS011;36061;48.116;11.612;2024-01-30T10:59:51;11.47;;;3.00;;
50161;SDS011;36061;48.116;11.612;2024-01-30T11:02:19;5.23;;;1.97;;
50161;SDS011;36061;48.116;11.612;2024-01-30T11:04:49;2.37;;;1.33;;
50161;SDS011;36061;48.116;11.612;2024-01-30T11:07:17;4.43;;;1.60;;
50161;SDS011;36061;48.116;11.612;2024-01-30T11:09:49;3.60;;;1.23;;
50161;SDS011;36061;48.116;11.612;2024-01-30T11:12:18;1.50;;;1.20;;
50161;SDS011;36061;48.116;11.612;2024-01-30T11:14:48;9.40;;;2.07;;
50161;SDS011;36061;48.116;11.612;2024-01-30T11:17:16;13.73;;;1.60;;
50161;SDS011;36061;48.116;11.612;2024-01-30T11:19:43;6.13;;;1.80;;
50161;SDS011;36061;48.116;11.612;2024-01-30T11:22:12;5.87;;;1.90;;
50161;SDS011;36061;48.116;11.612;2024-01-30T11:24:40;3.90;;;1.50;;
50161;SDS011;36061;48.116;11.612;2024-01-30T11:27:08;8.83;;;1.80;;
50161;SDS011;36061;48.116;11.612;2024-01-30T11:29:37;4.87;;;2.03;;
50161;SDS011;36061;48.116;11.612;2024-01-30T11:32:07;4.63;;;1.77;;
50161;SDS011;36061;48.116;11.612;2024-01-30T11:34:34;5.07;;;1.80;;
50161;SDS011;36061;48.116;11.612;2024-01-30T11:37:09;13.13;;;2.57;;
50161;SDS011;36061;48.116;11.612;2024-01-30T11:39:38;6.13;;;1.47;;
50161;SDS011;36061;48.116;11.612;2024-01-30T11:42:07;5.43;;;1.40;;
50161;SDS011;36061;48.116;11.612;2024-01-30T11:44:35;8.73;;;2.13;;
50161;SDS011;36061;48.116;11.612;2024-01-30T11:47:04;6.40;;;1.50;;
50161;SDS011;36061;48.116;11.612;2024-01-30T11:49:31;3.73;;;1.67;;
50161;SDS011;36061;48.116;11.612;2024-01-30T11:52:00;9.43;;;2.40;;
50161;SDS011;36061;48.116;11.612;2024-01-30T11:54:27;9.17;;;2.03;;
50161;SDS011;36061;48.116;11.612;2024-01-30T11:56:55;3.07;;;2.00;;
50161;SDS011;36061;48.116;11.612;2024-01-30T11:59:22;4.03;;;1.73;;
50161;SDS011;36061;48.116;11.612;2024-01-30T12:01:51;2.27;;;1.50;;
50161;SDS011;36061;48.116;11.612;2024-01-30T12:04:20;7.47;;;2.03;;
50161;SDS011;36061;48.116;11.612;2024-01-30T12:06:50;6.57;;;1.90;;
50161;SDS011;36061;48.116;11.612;2024-01-30T12:09:18;5.77;;;1.97;;
50161;SDS011;36061;48.116;11.612;2024-01-30T12:11:45;3.87;;;1.77;;
50161;SDS011;36061;48.116;11.612;2024-01-30T12:14:13;3.20;;;1.70;;
50161;SDS011;36061;48.116;11.612;2024-01-30T12:16:41;10.03;;;1.87;;
50161;SDS011;36061;48.116;11.612;2024-01-30T12:19:09;3.17;;;1.70;;
50161;SDS011;36061;48.116;11.612;2024-01-30T12:21:38;2.17;;;1.57;;
50161;SDS011;36061;48.116;11.612;2024-01-30T12:24:05;8.03;;;1.97;;
50161;SDS011;36061;48.116;11.612;2024-01-30T12:26:33;2.80;;;1.30;;
50161;SDS011;36061;48.116;11.612;2024-01-30T12:29:03;2.30;;;1.33;;
50161;SDS011;36061;48.116;11.612;2024-01-30T12:31:31;3.00;;;1.27;;
50161;SDS011;36061;48.116;11.612;2024-01-30T12:33:59;5.07;;;1.73;;
50161;SDS011;36061;48.116;11.612;2024-01-30T12:36:28;4.90;;;1.60;;
50161;SDS011;36061;48.116;11.612;2024-01-30T12:38:58;5.33;;;2.37;;
50161;SDS011;36061;48.116;11.612;2024-01-30T12:41:25;1.67;;;1.30;;
50161;SDS011;36061;48.116;11.612;2024-01-30T12:43:55;1.80;;;1.07;;
50161;SDS011;36061;48.116;11.612;2024-01-30T12:46:25;5.57;;;1.57;;
50161;SDS011;36061;48.116;11.612;2024-01-30T12:48:55;2.67;;;1.77;;
50161;SDS011;36061;48.116;11.612;2024-01-30T12:51:22;4.77;;;1.50;;
50161;SDS011;36061;48.116;11.612;2024-01-30T12:53:51;4.73;;;1.70;;
50161;SDS011;36061;48.116;11.612;2024-01-30T12:56:20;2.33;;;1.57;;
50161;SDS011;36061;48.116;11.612;2024-01-30T12:58:47;5.87;;;1.70;;
50161;SDS011;36061;48.116;11.612;2024-01-30T13:01:14;4.17;;;1.80;;
50161;SDS011;36061;48.116;11.612;2024-01-30T13:03:42;4.43;;;1.50;;
50161;SDS011;36061;48.116;11.612;2024-01-30T13:06:09;2.80;;;1.53;;
50161;SDS011;36061;48.116;11.612;2024-01-30T13:08:37;2.40;;;1.30;;
50161;SDS011;36061;48.116;11.612;2024-01-30T13:11:04;2.90;;;1.50;;
50161;SDS011;36061;48.116;11.612;2024-01-30T13:13:33;6.47;;;1.77;;
50161;SDS011;36061;48.116;11.612;2024-01-30T13:16:01;4.53;;;1.50;;
50161;SDS011;36061;48.116;11.612;2024-01-30T13:18:30;4.03;;;1.70;;
50161;SDS011;36061;48.116;11.612;2024-01-30T13:20:57;4.87;;;1.70;;
50161;SDS011;36061;48.116;11.612;2024-01-30T13:23:24;2.57;;;1.40;;
50161;SDS011;36061;48.116;11.612;2024-01-30T13:25:52;4.80;;;1.90;;
50161;SDS011;36061;48.116;11.612;2024-01-30T13:28:23;2.57;;;1.50;;
50161;SDS011;36061;48.116;11.612;2024-01-30T13:30:52;7.70;;;1.70;;
50161;SDS011;36061;48.116;11.612;2024-01-30T13:33:19;6.90;;;1.40;;
50161;SDS011;36061;48.116;11.612;2024-01-30T13:35:47;4.10;;;1.50;;
50161;SDS011;36061;48.116;11.612;2024-01-30T13:38:14;5.27;;;1.50;;
50161;SDS011;36061;48.116;11.612;2024-01-30T13:40:42;3.63;;;1.70;;
50161;SDS011;36061;48.116;11.612;2024-01-30T13:43:10;7.83;;;1.50;;
50161;SDS011;36061;48.116;11.612;2024-01-30T13:45:37;4.37;;;1.50;;
50161;SDS011;36061;48.116;11.612;2024-01-30T13:48:06;6.47;;;1.83;;
50161;SDS011;36061;48.116;11.612;2024-01-30T13:50:34;8.00;;;1.60;;
50161;SDS011;36061;48.116;11.612;2024-01-30T13:53:02;5.87;;;1.80;;
50161;SDS011;36061;48.116;11.612;2024-01-30T13:55:30;2.90;;;1.30;;
50161;SDS011;36061;48.116;11.612;2024-01-30T13:57:57;4.77;;;1.50;;
50161;SDS011;36061;48.116;11.612;2024-01-30T14:00:24;3.20;;;1.57;;
50161;SDS011;36061;48.116;11.612;2024-01-30T14:02:52;4.53;;;1.77;;
50161;SDS011;36061;48.116;11.612;2024-01-30T14:05:22;4.10;;;1.60;;
50161;SDS011;36061;48.116;11.612;2024-01-30T14:07:49;4.57;;;1.70;;
50161;SDS011;36061;48.116;11.612;2024-01-30T14:10:17;1.80;;;1.23;;
50161;SDS011;36061;48.116;11.612;2024-01-30T14:12:45;5.87;;;1.70;;
50161;SDS011;36061;48.116;11.612;2024-01-30T14:15:13;1.77;;;1.40;;
50161;SDS011;36061;48.116;11.612;2024-01-30T14:17:43;4.23;;;1.23;;
50161;SDS011;36061;48.116;11.612;2024-01-30T14:20:14;3.47;;;1.70;;
50161;SDS011;36061;48.116;11.612;2024-01-30T14:22:43;5.20;;;1.20;;
50161;SDS011;36061;48.116;11.612;2024-01-30T14:25:11;6.30;;;1.53;;
50161;SDS011;36061;48.116;11.612;2024-01-30T14:27:38;3.33;;;1.30;;
50161;SDS011;36061;48.116;11.612;2024-01-30T14:30:06;2.00;;;1.40;;
50161;SDS011;36061;48.116;11.612;2024-01-30T14:32:37;2.33;;;1.03;;
50161;SDS011;36061;48.116;11.612;2024-01-30T14:35:06;1.43;;;1.30;;
50161;SDS011;36061;48.116;11.612;2024-01-30T14:37:34;7.87;;;1.80;;